sensor_id;sensor_type;location;lat;lon;timestamp;P1;durP1;ratioP1;P2;durP2;ratioP2
39674;SDS011;27790;50.840;4.386;2024-01-30T00:01:13;7.55;;;4.72;;
39674;SDS011;27790;50.840;4.386;2024-01-30T00:03:38;10.07;;;4.10;;
39674;SDS011;27790;50.840;4.386;2024-01-30T00:06:04;5.72;;;3.72;;
39674;SDS011;27790;50.840;4.386;2024-01-30T00:08:29;6.72;;;4.25;;
39674;SDS011;27790;50.840;4.386;2024-01-30T00:10:55;6.18;;;3.72;;
39674;SDS011;27790;50.840;4.386;2024-01-30T00:13:21;5.88;;;4.22;;
39674;SDS011;27790;50.840;4.386;2024-01-30T00:15:46;4.72;;;3.58;;
39674;SDS011;27790;50.840;4.386;2024-01-30T00:18:12;6.88;;;4.38;;
39674;SDS011;27790;50.840;4.386;2024-01-30T00:20:38;7.85;;;5.25;;
39674;SDS011;27790;50.840;4.386;2024-01-30T00:23:03;6.95;;;4.60;;
39674;SDS011;27790;50.840;4.386;2024-01-30T00:25:29;4.68;;;4.10;;
39674;SDS011;27790;50.840;4.386;2024-01-30T00:27:55;5.78;;;4.38;;
39674;SDS011;27790;50.840;4.386;2024-01-30T00:30:21;8.68;;;4.53;;
39674;SDS011;27790;50.840;4.386;2024-01-30T00:32:46;6.65;;;4.25;;
39674;SDS011;27790;50.840;4.386;2024-01-30T00:35:12;5.75;;;3.63;;
39674;SDS011;27790;50.840;4.386;2024-01-30T00:37:37;3.92;;;3.55;;
39674;SDS011;27790;50.840;4.386;2024-01-30T00:40:03;6.70;;;4.00;;
39674;SDS011;27790;50.840;4.386;2024-01-30T00:42:31;5.50;;;4.00;;
39674;SDS011;27790;50.840;4.386;2024-01-30T00:44:56;5.78;;;3.92;;
39674;SDS011;27790;50.840;4.386;2024-01-30T00:47:22;6.50;;;3.90;;
39674;SDS011;27790;50.840;4.386;2024-01-30T00:49:48;7.15;;;4.05;;
39674;SDS011;27790;50.840;4.386;2024-01-30T00:52:13;6.60;;;3.60;;
39674;SDS011;27790;50.840;4.386;2024-01-30T00:54:39;5.50;;;3.80;;
39674;SDS011;27790;50.840;4.386;2024-01-30T00:57:04;6.05;;;3.92;;
39674;SDS011;27790;50.840;4.386;2024-01-30T00:59:30;6.90;;;4.40;;
39674;SDS011;27790;50.840;4.386;2024-01-30T01:01:56;6.20;;;3.50;;
39674;SDS011;27790;50.840;4.386;2024-01-30T01:04:21;6.07;;;3.92;;
39674;SDS011;27790;50.840;4.386;2024-01-30T01:06:47;7.28;;;3.72;;
39674;SDS011;27790;50.840;4.386;2024-01-30T01:09:14;6.85;;;4.03;;
39674;SDS011;27790;50.840;4.386;2024-01-30T01:11:39;5.95;;;4.32;;
39674;SDS011;27790;50.840;4.386;2024-01-30T01:14:05;10.77;;;5.03;;
39674;SDS011;27790;50.840;4.386;2024-01-30T01:16:30;9.35;;;3.60;;
39674;SDS011;27790;50.840;4.386;2024-01-30T01:18:56;5.75;;;3.88;;
39674;SDS011;27790;50.840;4.386;2024-01-30T01:21:21;4.82;;;3.17;;
39674;SDS011;27790;50.840;4.386;2024-01-30T01:23:48;6.60;;;3.92;;
39674;SDS011;27790;50.840;4.386;2024-01-30T01:26:13;5.63;;;4.05;;
39674;SDS011;27790;50.840;4.386;2024-01-30T01:28:40;4.35;;;3.58;;
39674;SDS011;27790;50.840;4.386;2024-01-30T01:31:06;9.52;;;4.55;;
39674;SDS011;27790;50.840;4.386;2024-01-30T01:33:32;7.18;;;3.70;;
39674;SDS011;27790;50.840;4.386;2024-01-30T01:35:58;7.28;;;3.35;;
39674;SDS011;27790;50.840;4.386;2024-01-30T01:38:24;8.35;;;3.58;;
39674;SDS011;27790;50.840;4.386;2024-01-30T01:40:50;6.85;;;4.10;;
39674;SDS011;27790;50.840;4.386;2024-01-30T01:43:16;4.15;;;3.75;;
39674;SDS011;27790;50.840;4.386;2024-01-30T01:45:42;5.63;;;3.38;;
39674;SDS011;27790;50.840;4.386;2024-01-30T01:48:07;9.52;;;3.80;;
39674;SDS011;27790;50.840;4.386;2024-01-30T01:50:34;6.07;;;3.58;;
39674;SDS011;27790;50.840;4.386;2024-01-30T01:53:00;9.02;;;3.80;;
39674;SDS011;27790;50.840;4.386;2024-01-30T01:55:27;7.15;;;3.88;;
39674;SDS011;27790;50.840;4.386;2024-01-30T01:57:55;4.70;;;3.45;;
39674;SDS011;27790;50.840;4.386;2024-01-30T02:00:21;7.07;;;3.70;;
39674;SDS011;27790;50.840;4.386;2024-01-30T02:02:47;6.47;;;3.90;;
39674;SDS011;27790;50.840;4.386;2024-01-30T02:05:12;4.47;;;3.35;;
39674;SDS011;27790;50.840;4.386;2024-01-30T02:07:39;5.55;;;3.53;;
39674;SDS011;27790;50.840;4.386;2024-01-30T02:10:06;7.32;;;3.20;;
39674;SDS011;27790;50.840;4.386;2024-01-30T02:12:33;4.70;;;3.03;;
39674;SDS011;27790;50.840;4.386;2024-01-30T02:14:59;4.78;;;3.33;;
39674;SDS011;27790;50.840;4.386;2024-01-30T02:17:24;3.83;;;2.95;;
39674;SDS011;27790;50.840;4.386;2024-01-30T02:19:50;7.43;;;3.40;;
39674;SDS011;27790;50.840;4.386;2024-01-30T02:22:16;7.00;;;4.03;;
39674;SDS011;27790;50.840;4.386;2024-01-30T02:24:43;5.15;;;3.65;;
39674;SDS011;27790;50.840;4.386;2024-01-30T02:27:08;6.72;;;3.75;;
39674;SDS011;27790;50.840;4.386;2024-01-30T02:29:34;4.72;;;3.38;;
39674;SDS011;27790;50.840;4.386;2024-01-30T02:31:59;5.13;;;3.33;;
39674;SDS011;27790;50.840;4.386;2024-01-30T02:34:25;7.90;;;3.70;;
39674;SDS011;27790;50.840;4.386;2024-01-30T02:36:50;9.38;;;3.25;;
39674;SDS011;27790;50.840;4.386;2024-01-30T02:39:16;6.95;;;3.75;;
39674;SDS011;27790;50.840;4.386;2024-01-30T02:41:41;8.15;;;3.80;;
39674;SDS011;27790;50.840;4.386;2024-01-30T02:44:07;6.35;;;3.72;;
39674;SDS011;27790;50.840;4.386;2024-01-30T02:46:32;5.70;;;3.83;;
39674;SDS011;27790;50.840;4.386;2024-01-30T02:48:58;5.55;;;4.05;;
39674;SDS011;27790;50.840;4.386;2024-01-30T02:51:23;7.18;;;3.30;;
39674;SDS011;27790;50.840;4.386;2024-01-30T02:53:49;4.85;;;3.25;;
39674;SDS011;27790;50.840;4.386;2024-01-30T02:56:15;7.60;;;3.20;;
39674;SDS011;27790;50.840;4.386;2024-01-30T02:58:40;5.00;;;3.95;;
39674;SDS011;27790;50.840;4.386;2024-01-30T03:01:06;5.65;;;3.90;;
39674;SDS011;27790;50.840;4.386;2024-01-30T03:03:32;9.50;;;3.88;;
39674;SDS011;27790;50.840;4.386;2024-01-30T03:06:00;6.10;;;4.05;;
39674;SDS011;27790;50.840;4.386;2024-01-30T03:08:25;5.53;;;3.40;;
39674;SDS011;27790;50.840;4.386;2024-01-30T03:10:51;7.90;;;3.80;;
39674;SDS011;27790;50.840;4.386;2024-01-30T03:13:16;6.07;;;3.50;;
39674;SDS011;27790;50.840;4.386;2024-01-30T03:15:42;8.02;;;3.92;;
39674;SDS011;27790;50.840;4.386;2024-01-30T03:18:07;7.43;;;3.88;;
39674;SDS011;27790;50.840;4.386;2024-01-30T03:20:33;7.82;;;3.67;;
39674;SDS011;27790;50.840;4.386;2024-01-30T03:22:59;7.18;;;3.60;;
39674;SDS011;27790;50.840;4.386;2024-01-30T03:25:25;4.95;;;3.28;;
39674;SDS011;27790;50.840;4.386;2024-01-30T03:27:51;5.40;;;3.88;;
39674;SDS011;27790;50.840;4.386;2024-01-30T03:30:16;5.50;;;3.58;;
39674;SDS011;27790;50.840;4.386;2024-01-30T03:32:42;5.70;;;3.00;;
39674;SDS011;27790;50.840;4.386;2024-01-30T03:35:08;5.43;;;4.05;;
39674;SDS011;27790;50.840;4.386;2024-01-30T03:37:34;6.82;;;3.10;;
39674;SDS011;27790;50.840;4.386;2024-01-30T03:39:59;5.70;;;3.53;;
39674;SDS011;27790;50.840;4.386;2024-01-30T03:42:25;5.18;;;3.70;;
39674;SDS011;27790;50.840;4.386;2024-01-30T03:44:50;4.97;;;3.47;;
39674;SDS011;27790;50.840;4.386;2024-01-30T03:47:20;10.52;;;3.80;;
39674;SDS011;27790;50.840;4.386;2024-01-30T03:49:46;4.07;;;3.25;;
39674;SDS011;27790;50.840;4.386;2024-01-30T03:52:11;5.78;;;4.15;;
39674;SDS011;27790;50.840;4.386;2024-01-30T03:54:37;6.22;;;3.95;;
39674;SDS011;27790;50.840;4.386;2024-01-30T03:57:03;7.28;;;3.40;;
39674;SDS011;27790;50.840;4.386;2024-01-30T03:59:28;6.05;;;3.80;;
39674;SDS011;27790;50.840;4.386;2024-01-30T04:01:54;6.65;;;3.75;;
39674;SDS011;27790;50.840;4.386;2024-01-30T04:04:20;5.68;;;3.50;;
39674;SDS011;27790;50.840;4.386;2024-01-30T04:06:46;6.00;;;3.92;;
39674;SDS011;27790;50.840;4.386;2024-01-30T04:09:14;7.93;;;4.55;;
39674;SDS011;27790;50.840;4.386;2024-01-30T04:11:40;9.98;;;3.78;;
39674;SDS011;27790;50.840;4.386;2024-01-30T04:14:07;5.70;;;3.50;;
39674;SDS011;27790;50.840;4.386;2024-01-30T04:16:33;4.40;;;3.05;;
39674;SDS011;27790;50.840;4.386;2024-01-30T04:18:59;6.07;;;3.97;;
39674;SDS011;27790;50.840;4.386;2024-01-30T04:21:24;5.78;;;4.68;;
39674;SDS011;27790;50.840;4.386;2024-01-30T04:23:53;5.85;;;4.00;;
39674;SDS011;27790;50.840;4.386;2024-01-30T04:26:18;6.97;;;4.38;;
39674;SDS011;27790;50.840;4.386;2024-01-30T04:28:44;8.02;;;4.72;;
39674;SDS011;27790;50.840;4.386;2024-01-30T04:31:10;7.80;;;3.95;;
39674;SDS011;27790;50.840;4.386;2024-01-30T04:33:36;7.70;;;4.18;;
39674;SDS011;27790;50.840;4.386;2024-01-30T04:36:02;6.20;;;4.03;;
39674;SDS011;27790;50.840;4.386;2024-01-30T04:38:28;5.88;;;3.80;;
39674;SDS011;27790;50.840;4.386;2024-01-30T04:40:53;6.28;;;4.38;;
39674;SDS011;27790;50.840;4.386;2024-01-30T04:43:19;9.57;;;5.07;;
39674;SDS011;27790;50.840;4.386;2024-01-30T04:45:44;4.40;;;3.60;;
39674;SDS011;27790;50.840;4.386;2024-01-30T04:48:10;10.32;;;4.88;;
39674;SDS011;27790;50.840;4.386;2024-01-30T04:50:36;9.27;;;4.03;;
39674;SDS011;27790;50.840;4.386;2024-01-30T04:53:01;6.35;;;4.03;;
39674;SDS011;27790;50.840;4.386;2024-01-30T04:55:27;7.40;;;4.45;;
39674;SDS011;27790;50.840;4.386;2024-01-30T04:57:52;7.18;;;3.72;;
39674;SDS011;27790;50.840;4.386;2024-01-30T05:00:18;5.60;;;4.18;;
39674;SDS011;27790;50.840;4.386;2024-01-30T05:02:44;7.47;;;3.88;;
39674;SDS011;27790;50.840;4.386;2024-01-30T05:05:10;6.28;;;3.83;;
39674;SDS011;27790;50.840;4.386;2024-01-30T05:07:36;7.30;;;4.20;;
39674;SDS011;27790;50.840;4.386;2024-01-30T05:10:02;7.90;;;4.38;;
39674;SDS011;27790;50.840;4.386;2024-01-30T05:12:28;6.20;;;4.65;;
39674;SDS011;27790;50.840;4.386;2024-01-30T05:14:54;9.15;;;3.83;;
39674;SDS011;27790;50.840;4.386;2024-01-30T05:17:19;6.13;;;4.07;;
39674;SDS011;27790;50.840;4.386;2024-01-30T05:19:45;7.78;;;4.20;;
39674;SDS011;27790;50.840;4.386;2024-01-30T05:22:10;8.00;;;3.85;;
39674;SDS011;27790;50.840;4.386;2024-01-30T05:24:40;10.38;;;4.00;;
39674;SDS011;27790;50.840;4.386;2024-01-30T05:27:06;6.10;;;4.03;;
39674;SDS011;27790;50.840;4.386;2024-01-30T05:29:32;5.20;;;4.38;;
39674;SDS011;27790;50.840;4.386;2024-01-30T05:31:58;8.68;;;4.88;;
39674;SDS011;27790;50.840;4.386;2024-01-30T05:34:23;10.98;;;5.00;;
39674;SDS011;27790;50.840;4.386;2024-01-30T05:36:49;6.22;;;4.65;;
39674;SDS011;27790;50.840;4.386;2024-01-30T05:39:14;7.20;;;4.70;;
39674;SDS011;27790;50.840;4.386;2024-01-30T05:41:40;7.15;;;4.10;;
39674;SDS011;27790;50.840;4.386;2024-01-30T05:44:06;8.75;;;4.10;;
39674;SDS011;27790;50.840;4.386;2024-01-30T05:46:31;6.90;;;4.45;;
39674;SDS011;27790;50.840;4.386;2024-01-30T05:48:58;7.30;;;4.20;;
39674;SDS011;27790;50.840;4.386;2024-01-30T05:51:23;4.65;;;3.70;;
39674;SDS011;27790;50.840;4.386;2024-01-30T05:53:49;10.20;;;5.22;;
39674;SDS011;27790;50.840;4.386;2024-01-30T05:56:15;11.32;;;5.07;;
39674;SDS011;27790;50.840;4.386;2024-01-30T05:58:40;8.48;;;4.18;;
39674;SDS011;27790;50.840;4.386;2024-01-30T06:01:08;5.38;;;3.97;;
39674;SDS011;27790;50.840;4.386;2024-01-30T06:03:33;7.63;;;4.88;;
39674;SDS011;27790;50.840;4.386;2024-01-30T06:05:59;8.15;;;4.20;;
39674;SDS011;27790;50.840;4.386;2024-01-30T06:08:25;5.45;;;4.30;;
39674;SDS011;27790;50.840;4.386;2024-01-30T06:10:50;7.13;;;4.07;;
39674;SDS011;27790;50.840;4.386;2024-01-30T06:13:16;8.02;;;4.47;;
39674;SDS011;27790;50.840;4.386;2024-01-30T06:15:41;7.90;;;4.40;;
39674;SDS011;27790;50.840;4.386;2024-01-30T06:18:07;8.63;;;4.05;;
39674;SDS011;27790;50.840;4.386;2024-01-30T06:20:32;8.65;;;4.43;;
39674;SDS011;27790;50.840;4.386;2024-01-30T06:22:58;6.93;;;4.38;;
39674;SDS011;27790;50.840;4.386;2024-01-30T06:25:23;8.02;;;4.53;;
39674;SDS011;27790;50.840;4.386;2024-01-30T06:27:49;5.95;;;3.95;;
39674;SDS011;27790;50.840;4.386;2024-01-30T06:30:14;6.90;;;4.60;;
39674;SDS011;27790;50.840;4.386;2024-01-30T06:32:40;8.18;;;4.80;;
39674;SDS011;27790;50.840;4.386;2024-01-30T06:35:06;5.95;;;4.28;;
39674;SDS011;27790;50.840;4.386;2024-01-30T06:37:31;9.23;;;4.60;;
39674;SDS011;27790;50.840;4.386;2024-01-30T06:39:57;10.60;;;4.97;;
39674;SDS011;27790;50.840;4.386;2024-01-30T06:42:22;7.13;;;4.07;;
39674;SDS011;27790;50.840;4.386;2024-01-30T06:44:48;10.10;;;4.90;;
39674;SDS011;27790;50.840;4.386;2024-01-30T06:47:14;8.38;;;4.35;;
39674;SDS011;27790;50.840;4.386;2024-01-30T06:49:39;5.15;;;4.20;;
39674;SDS011;27790;50.840;4.386;2024-01-30T06:52:07;12.65;;;4.53;;
39674;SDS011;27790;50.840;4.386;2024-01-30T06:54:32;8.95;;;5.13;;
39674;SDS011;27790;50.840;4.386;2024-01-30T06:56:58;6.90;;;4.50;;
39674;SDS011;27790;50.840;4.386;2024-01-30T06:59:24;5.80;;;4.80;;
39674;SDS011;27790;50.840;4.386;2024-01-30T07:01:50;8.80;;;5.13;;
39674;SDS011;27790;50.840;4.386;2024-01-30T07:04:15;12.77;;;5.30;;
39674;SDS011;27790;50.840;4.386;2024-01-30T07:06:41;6.50;;;4.80;;
39674;SDS011;27790;50.840;4.386;2024-01-30T07:09:07;9.40;;;5.05;;
39674;SDS011;27790;50.840;4.386;2024-01-30T07:11:33;10.23;;;4.55;;
39674;SDS011;27790;50.840;4.386;2024-01-30T07:13:59;11.07;;;4.88;;
39674;SDS011;27790;50.840;4.386;2024-01-30T07:16:24;10.93;;;4.50;;
39674;SDS011;27790;50.840;4.386;2024-01-30T07:18:50;11.88;;;5.00;;
39674;SDS011;27790;50.840;4.386;2024-01-30T07:21:16;9.57;;;5.00;;
39674;SDS011;27790;50.840;4.386;2024-01-30T07:23:42;12.70;;;5.28;;
39674;SDS011;27790;50.840;4.386;2024-01-30T07:26:08;9.27;;;5.53;;
39674;SDS011;27790;50.840;4.386;2024-01-30T07:28:34;14.05;;;5.13;;
39674;SDS011;27790;50.840;4.386;2024-01-30T07:31:00;7.10;;;4.60;;
39674;SDS011;27790;50.840;4.386;2024-01-30T07:33:26;9.05;;;4.93;;
39674;SDS011;27790;50.840;4.386;2024-01-30T07:35:52;8.07;;;4.95;;
39674;SDS011;27790;50.840;4.386;2024-01-30T07:38:18;13.55;;;5.65;;
39674;SDS011;27790;50.840;4.386;2024-01-30T07:40:43;19.38;;;6.68;;
39674;SDS011;27790;50.840;4.386;2024-01-30T07:43:09;17.88;;;5.75;;
39674;SDS011;27790;50.840;4.386;2024-01-30T07:45:35;12.57;;;6.03;;
39674;SDS011;27790;50.840;4.386;2024-01-30T07:48:02;13.65;;;4.97;;
39674;SDS011;27790;50.840;4.386;2024-01-30T07:50:28;8.93;;;5.50;;
39674;SDS011;27790;50.840;4.386;2024-01-30T07:52:55;11.80;;;5.18;;
39674;SDS011;27790;50.840;4.386;2024-01-30T07:55:22;13.25;;;5.85;;
39674;SDS011;27790;50.840;4.386;2024-01-30T07:57:53;11.60;;;5.80;;
39674;SDS011;27790;50.840;4.386;2024-01-30T08:00:20;15.55;;;6.07;;
39674;SDS011;27790;50.840;4.386;2024-01-30T08:02:46;15.25;;;5.88;;
39674;SDS011;27790;50.840;4.386;2024-01-30T08:05:12;9.13;;;5.35;;
39674;SDS011;27790;50.840;4.386;2024-01-30T08:07:40;16.77;;;7.15;;
39674;SDS011;27790;50.840;4.386;2024-01-30T08:10:10;13.95;;;6.63;;
39674;SDS011;27790;50.840;4.386;2024-01-30T08:12:36;9.02;;;5.57;;
39674;SDS011;27790;50.840;4.386;2024-01-30T08:15:02;13.57;;;6.65;;
39674;SDS011;27790;50.840;4.386;2024-01-30T08:17:28;15.85;;;6.28;;
39674;SDS011;27790;50.840;4.386;2024-01-30T08:19:54;18.50;;;6.00;;
39674;SDS011;27790;50.840;4.386;2024-01-30T08:22:19;17.85;;;6.22;;
39674;SDS011;27790;50.840;4.386;2024-01-30T08:24:45;20.52;;;6.60;;
39674;SDS011;27790;50.840;4.386;2024-01-30T08:27:10;14.85;;;5.93;;
39674;SDS011;27790;50.840;4.386;2024-01-30T08:29:37;10.70;;;5.72;;
39674;SDS011;27790;50.840;4.386;2024-01-30T08:32:04;12.23;;;5.78;;
39674;SDS011;27790;50.840;4.386;2024-01-30T08:34:30;11.65;;;5.90;;
39674;SDS011;27790;50.840;4.386;2024-01-30T08:36:56;12.50;;;5.68;;
39674;SDS011;27790;50.840;4.386;2024-01-30T08:39:21;11.70;;;5.93;;
39674;SDS011;27790;50.840;4.386;2024-01-30T08:41:47;18.42;;;6.68;;
39674;SDS011;27790;50.840;4.386;2024-01-30T08:44:13;16.73;;;6.70;;
39674;SDS011;27790;50.840;4.386;2024-01-30T08:46:38;11.60;;;6.05;;
39674;SDS011;27790;50.840;4.386;2024-01-30T08:49:04;17.38;;;5.40;;
39674;SDS011;27790;50.840;4.386;2024-01-30T08:51:30;16.38;;;6.45;;
39674;SDS011;27790;50.840;4.386;2024-01-30T08:53:56;12.65;;;6.30;;
39674;SDS011;27790;50.840;4.386;2024-01-30T08:56:21;12.55;;;6.13;;
39674;SDS011;27790;50.840;4.386;2024-01-30T08:58:47;12.85;;;5.43;;
39674;SDS011;27790;50.840;4.386;2024-01-30T09:01:12;14.57;;;5.97;;
39674;SDS011;27790;50.840;4.386;2024-01-30T09:03:38;16.95;;;6.68;;
39674;SDS011;27790;50.840;4.386;2024-01-30T09:06:09;12.93;;;5.75;;
39674;SDS011;27790;50.840;4.386;2024-01-30T09:08:35;13.20;;;6.07;;
39674;SDS011;27790;50.840;4.386;2024-01-30T09:11:00;10.45;;;5.80;;
39674;SDS011;27790;50.840;4.386;2024-01-30T09:13:26;13.00;;;5.93;;
39674;SDS011;27790;50.840;4.386;2024-01-30T09:15:51;16.08;;;5.35;;
39674;SDS011;27790;50.840;4.386;2024-01-30T09:18:18;9.73;;;6.15;;
39674;SDS011;27790;50.840;4.386;2024-01-30T09:20:43;12.10;;;5.78;;
39674;SDS011;27790;50.840;4.386;2024-01-30T09:23:12;12.38;;;5.57;;
39674;SDS011;27790;50.840;4.386;2024-01-30T09:25:38;13.48;;;5.82;;
39674;SDS011;27790;50.840;4.386;2024-01-30T09:28:04;17.65;;;6.38;;
39674;SDS011;27790;50.840;4.386;2024-01-30T09:30:30;13.00;;;6.70;;
39674;SDS011;27790;50.840;4.386;2024-01-30T09:32:55;12.52;;;6.50;;
39674;SDS011;27790;50.840;4.386;2024-01-30T09:35:21;12.65;;;7.13;;
39674;SDS011;27790;50.840;4.386;2024-01-30T09:37:46;18.50;;;6.50;;
39674;SDS011;27790;50.840;4.386;2024-01-30T09:40:13;16.00;;;7.43;;
39674;SDS011;27790;50.840;4.386;2024-01-30T09:42:39;22.58;;;7.03;;
39674;SDS011;27790;50.840;4.386;2024-01-30T09:45:07;16.27;;;7.22;;
39674;SDS011;27790;50.840;4.386;2024-01-30T09:47:41;19.60;;;7.47;;
39674;SDS011;27790;50.840;4.386;2024-01-30T09:50:08;24.15;;;7.60;;
39674;SDS011;27790;50.840;4.386;2024-01-30T09:52:35;20.58;;;7.30;;
39674;SDS011;27790;50.840;4.386;2024-01-30T09:55:01;15.15;;;6.93;;
39674;SDS011;27790;50.840;4.386;2024-01-30T09:57:27;14.43;;;7.97;;
39674;SDS011;27790;50.840;4.386;2024-01-30T09:59:53;18.30;;;7.85;;
39674;SDS011;27790;50.840;4.386;2024-01-30T10:02:19;19.70;;;7.82;;
39674;SDS011;27790;50.840;4.386;2024-01-30T10:04:47;13.32;;;7.53;;
39674;SDS011;27790;50.840;4.386;2024-01-30T10:07:14;16.80;;;8.27;;
39674;SDS011;27790;50.840;4.386;2024-01-30T10:09:40;19.52;;;8.07;;
39674;SDS011;27790;50.840;4.386;2024-01-30T10:12:05;18.98;;;8.32;;
39674;SDS011;27790;50.840;4.386;2024-01-30T10:14:32;18.73;;;7.85;;
39674;SDS011;27790;50.840;4.386;2024-01-30T10:16:58;21.48;;;8.60;;
39674;SDS011;27790;50.840;4.386;2024-01-30T10:19:24;18.17;;;7.60;;
39674;SDS011;27790;50.840;4.386;2024-01-30T10:21:49;21.10;;;7.82;;
39674;SDS011;27790;50.840;4.386;2024-01-30T10:24:15;17.33;;;7.93;;
39674;SDS011;27790;50.840;4.386;2024-01-30T10:26:43;14.27;;;7.95;;
39674;SDS011;27790;50.840;4.386;2024-01-30T10:29:09;15.02;;;7.57;;
39674;SDS011;27790;50.840;4.386;2024-01-30T10:31:34;13.45;;;7.60;;
39674;SDS011;27790;50.840;4.386;2024-01-30T10:34:00;14.93;;;7.53;;
39674;SDS011;27790;50.840;4.386;2024-01-30T10:36:27;16.40;;;7.50;;
39674;SDS011;27790;50.840;4.386;2024-01-30T10:38:55;16.88;;;8.13;;
39674;SDS011;27790;50.840;4.386;2024-01-30T10:41:24;15.25;;;7.05;;
39674;SDS011;27790;50.840;4.386;2024-01-30T10:44:02;11.75;;;7.25;;
39674;SDS011;27790;50.840;4.386;2024-01-30T10:46:32;13.90;;;6.85;;
39674;SDS011;27790;50.840;4.386;2024-01-30T10:49:00;13.82;;;6.68;;
39674;SDS011;27790;50.840;4.386;2024-01-30T10:51:26;18.95;;;6.85;;
39674;SDS011;27790;50.840;4.386;2024-01-30T10:53:53;17.52;;;5.90;;
39674;SDS011;27790;50.840;4.386;2024-01-30T10:56:20;16.48;;;6.93;;
39674;SDS011;27790;50.840;4.386;2024-01-30T10:58:47;11.25;;;6.55;;
39674;SDS011;27790;50.840;4.386;2024-01-30T11:01:14;14.95;;;6.50;;
39674;SDS011;27790;50.840;4.386;2024-01-30T11:03:41;10.80;;;6.15;;
39674;SDS011;27790;50.840;4.386;2024-01-30T11:06:10;12.52;;;5.47;;
39674;SDS011;27790;50.840;4.386;2024-01-30T11:08:36;10.00;;;4.85;;
39674;SDS011;27790;50.840;4.386;2024-01-30T11:11:02;15.85;;;5.55;;
39674;SDS011;27790;50.840;4.386;2024-01-30T11:13:34;13.10;;;5.72;;
39674;SDS011;27790;50.840;4.386;2024-01-30T11:16:03;11.23;;;4.82;;
39674;SDS011;27790;50.840;4.386;2024-01-30T11:18:30;17.67;;;5.68;;
39674;SDS011;27790;50.840;4.386;2024-01-30T11:20:58;10.07;;;4.05;;
39674;SDS011;27790;50.840;4.386;2024-01-30T11:23:26;10.93;;;3.95;;
39674;SDS011;27790;50.840;4.386;2024-01-30T11:25:52;7.47;;;3.78;;
39674;SDS011;27790;50.840;4.386;2024-01-30T11:28:18;11.25;;;3.10;;
39674;SDS011;27790;50.840;4.386;2024-01-30T11:30:45;6.15;;;2.83;;
39674;SDS011;27790;50.840;4.386;2024-01-30T11:33:13;9.73;;;1.77;;
39674;SDS011;27790;50.840;4.386;2024-01-30T11:35:43;6.45;;;1.92;;
39674;SDS011;27790;50.840;4.386;2024-01-30T11:38:10;5.25;;;2.20;;
39674;SDS011;27790;50.840;4.386;2024-01-30T11:40:38;4.85;;;1.77;;
39674;SDS011;27790;50.840;4.386;2024-01-30T11:43:05;8.60;;;1.77;;
39674;SDS011;27790;50.840;4.386;2024-01-30T11:45:31;4.43;;;1.35;;
39674;SDS011;27790;50.840;4.386;2024-01-30T11:47:58;7.20;;;1.25;;
39674;SDS011;27790;50.840;4.386;2024-01-30T11:50:30;7.72;;;1.48;;
39674;SDS011;27790;50.840;4.386;2024-01-30T11:52:56;19.58;;;1.90;;
39674;SDS011;27790;50.840;4.386;2024-01-30T11:55:22;2.75;;;1.30;;
39674;SDS011;27790;50.840;4.386;2024-01-30T11:57:48;6.53;;;1.65;;
39674;SDS011;27790;50.840;4.386;2024-01-30T12:00:17;3.63;;;1.08;;
39674;SDS011;27790;50.840;4.386;2024-01-30T12:02:44;9.02;;;0.93;;
39674;SDS011;27790;50.840;4.386;2024-01-30T12:05:14;5.20;;;1.60;;
39674;SDS011;27790;50.840;4.386;2024-01-30T12:07:39;4.30;;;1.42;;
39674;SDS011;27790;50.840;4.386;2024-01-30T12:10:05;1.98;;;0.80;;
39674;SDS011;27790;50.840;4.386;2024-01-30T12:12:34;2.78;;;0.95;;
39674;SDS011;27790;50.840;4.386;2024-01-30T12:15:00;5.45;;;1.30;;
39674;SDS011;27790;50.840;4.386;2024-01-30T12:17:28;3.95;;;1.35;;
39674;SDS011;27790;50.840;4.386;2024-01-30T12:22:37;12.30;;;1.30;;
39674;SDS011;27790;50.840;4.386;2024-01-30T12:25:04;3.17;;;1.05;;
39674;SDS011;27790;50.840;4.386;2024-01-30T12:27:32;1.58;;;0.95;;
39674;SDS011;27790;50.840;4.386;2024-01-30T12:29:57;4.90;;;0.90;;
39674;SDS011;27790;50.840;4.386;2024-01-30T12:32:23;7.65;;;0.90;;
39674;SDS011;27790;50.840;4.386;2024-01-30T12:34:49;1.55;;;0.73;;
39674;SDS011;27790;50.840;4.386;2024-01-30T12:37:15;3.28;;;1.00;;
39674;SDS011;27790;50.840;4.386;2024-01-30T12:39:46;4.60;;;1.10;;
39674;SDS011;27790;50.840;4.386;2024-01-30T12:42:12;2.80;;;0.65;;
39674;SDS011;27790;50.840;4.386;2024-01-30T12:44:38;4.88;;;1.30;;
39674;SDS011;27790;50.840;4.386;2024-01-30T12:47:04;3.65;;;1.17;;
39674;SDS011;27790;50.840;4.386;2024-01-30T12:49:30;4.43;;;0.77;;
39674;SDS011;27790;50.840;4.386;2024-01-30T12:51:56;6.00;;;0.95;;
39674;SDS011;27790;50.840;4.386;2024-01-30T12:54:22;4.40;;;1.20;;
39674;SDS011;27790;50.840;4.386;2024-01-30T12:56:48;4.22;;;0.70;;
39674;SDS011;27790;50.840;4.386;2024-01-30T12:59:13;1.42;;;1.00;;
39674;SDS011;27790;50.840;4.386;2024-01-30T13:01:39;14.95;;;1.40;;
39674;SDS011;27790;50.840;4.386;2024-01-30T13:04:05;2.92;;;0.50;;
39674;SDS011;27790;50.840;4.386;2024-01-30T13:06:30;4.75;;;0.80;;
39674;SDS011;27790;50.840;4.386;2024-01-30T13:08:56;3.15;;;1.00;;
39674;SDS011;27790;50.840;4.386;2024-01-30T13:11:21;2.63;;;0.80;;
39674;SDS011;27790;50.840;4.386;2024-01-30T13:13:47;5.60;;;1.25;;
39674;SDS011;27790;50.840;4.386;2024-01-30T13:16:13;6.03;;;0.82;;
39674;SDS011;27790;50.840;4.386;2024-01-30T13:18:38;5.93;;;1.15;;
39674;SDS011;27790;50.840;4.386;2024-01-30T13:21:04;5.68;;;1.23;;
39674;SDS011;27790;50.840;4.386;2024-01-30T13:23:31;2.13;;;0.70;;
39674;SDS011;27790;50.840;4.386;2024-01-30T13:25:56;2.55;;;1.42;;
39674;SDS011;27790;50.840;4.386;2024-01-30T13:28:23;3.70;;;1.20;;
39674;SDS011;27790;50.840;4.386;2024-01-30T13:30:50;6.85;;;1.00;;
39674;SDS011;27790;50.840;4.386;2024-01-30T13:33:16;3.20;;;1.40;;
39674;SDS011;27790;50.840;4.386;2024-01-30T13:35:42;3.53;;;1.05;;
39674;SDS011;27790;50.840;4.386;2024-01-30T13:38:08;4.45;;;1.38;;
39674;SDS011;27790;50.840;4.386;2024-01-30T13:40:34;7.10;;;1.10;;
39674;SDS011;27790;50.840;4.386;2024-01-30T13:42:59;2.78;;;0.90;;
39674;SDS011;27790;50.840;4.386;2024-01-30T13:45:25;7.07;;;2.00;;
39674;SDS011;27790;50.840;4.386;2024-01-30T13:47:50;13.35;;;2.33;;
39674;SDS011;27790;50.840;4.386;2024-01-30T13:50:16;6.15;;;1.13;;
39674;SDS011;27790;50.840;4.386;2024-01-30T13:52:42;3.92;;;0.95;;
39674;SDS011;27790;50.840;4.386;2024-01-30T13:55:08;3.85;;;0.93;;
39674;SDS011;27790;50.840;4.386;2024-01-30T13:57:35;3.85;;;1.30;;
39674;SDS011;27790;50.840;4.386;2024-01-30T14:00:02;14.73;;;1.52;;
39674;SDS011;27790;50.840;4.386;2024-01-30T14:02:30;6.43;;;1.00;;
39674;SDS011;27790;50.840;4.386;2024-01-30T14:04:56;9.30;;;1.23;;
39674;SDS011;27790;50.840;4.386;2024-01-30T14:07:21;8.63;;;1.30;;
39674;SDS011;27790;50.840;4.386;2024-01-30T14:09:47;9.65;;;1.13;;
39674;SDS011;27790;50.840;4.386;2024-01-30T14:12:13;4.88;;;0.88;;
39674;SDS011;27790;50.840;4.386;2024-01-30T14:14:39;4.47;;;1.00;;
39674;SDS011;27790;50.840;4.386;2024-01-30T14:17:05;7.47;;;1.30;;
39674;SDS011;27790;50.840;4.386;2024-01-30T14:19:32;5.97;;;1.33;;
39674;SDS011;27790;50.840;4.386;2024-01-30T14:21:58;5.70;;;0.70;;
39674;SDS011;27790;50.840;4.386;2024-01-30T14:24:24;4.07;;;1.30;;
39674;SDS011;27790;50.840;4.386;2024-01-30T14:26:49;5.00;;;1.17;;
39674;SDS011;27790;50.840;4.386;2024-01-30T14:29:15;7.07;;;1.08;;
39674;SDS011;27790;50.840;4.386;2024-01-30T14:31:41;3.90;;;1.20;;
39674;SDS011;27790;50.840;4.386;2024-01-30T14:34:06;2.35;;;0.93;;
39674;SDS011;27790;50.840;4.386;2024-01-30T14:36:33;5.47;;;0.90;;
39674;SDS011;27790;50.840;4.386;2024-01-30T14:38:59;2.60;;;0.98;;